Glenrock, WY (82637)

7:07 AM MST on February 13, 2016 (GMT -0700)
WYDOT | | Change Station
CLOSE
Current Station
Personal Weather Station
Location: Glenrock, WY
Elevation: 5064 ft
Nearby Weather Stations

Elev 5064 ft 42.84 °N, 105.86 °W | Updated 26 minutes ago

Overcast
Overcast
46.0 °F
Feels Like 39 °F
N
17.0
Wind Variable Wind from SW
Gusts 24.0 mph

Today
High -- | Low -- °F
--% Chance of Precip.
Yesterday
High -- | Low -- °F
Precip. -- in
Pressure 30.08 in
Visibility 0.5 miles
Clouds
Windchill 39 °F
Dew Point 16.0 °F
Humidity 30%
Rainfall in
Snow Depth Not available.
7:03 AM 5:31 PM
Waxing Crescent, 31% visible
METAR KDGW 131353Z AUTO 00000KT 1/2SM FZFG VV002 M02/M02 A3002 RMK AO2 SLP186 I1001 T10221022
Pressure 30.08 in
Visibility 0.5 miles
Clouds
Windchill 39 °F
Dew Point 16.0 °F
Humidity 30%
Rainfall in
Snow Depth Not available.
7:03 AM 5:31 PM
Waxing Crescent, 31% visible
METAR KDGW 131353Z AUTO 00000KT 1/2SM FZFG VV002 M02/M02 A3002 RMK AO2 SLP186 I1001 T10221022

10-Day Weather Forecast

Almanac

Astronomy

Feb. 13, 2016 Rise Set
Actual Time
Civil Twilight
Nautical Twilight
Astronomical Twilight
Moon
Length of Visible Light
Length of Day
Tomorrow will be .
, % of the Moon is Illuminated

Today's Extremes

State Highs State Lows

Community

WunderPhotos

Upload Photos

1,892,556 photos uploaded!

WunderBlog® & News

Nearby

Air Quality

  Air Quality AQ Index Pollutant
Not available.

Snow Depth

Station Depth Elevation

Earthquake Activity

City Distance Mag. Time & Date
Minimum magnitude displayed is 2.5.

Coastal Water Temperatures

Place Temperature

Stations

Nearby Weather Stations

Station Location Temp. Windchill Dew Point Humidity Wind Precip. Elev Updated Type
                   

Watches & Warnings

There are currently no watches in effect.